Terminal Aerodrome Forecast
Issued by NWS

Home | Current Version | Previous Version | Text Only | Print | Product List | Glossary On
Versions: 1 2 3 4 5 6 7 8 9 10 11 12 13 14
000
FTUS44 KEPZ 291120
TAFDMN
TAF
KDMN 291120Z 2912/3012 26005KT P6SM SCT070 BKN110
     FM292200 21010KT P6SM VCTS SCT060CB BKN120
      TEMPO 2923/3003 VRB25G40KT 2SM TSRA BKN050CB=

USA.gov is the U.S. government's official web portal to all federal, state and local government web resources and services.